Ana Sayfa
METAR-TAF:

METAR-TAF

Havaalanları :

Batam, Endonezya

Enlem: 01-07-15N, Boylam: 104-07-07E, yükseklik: 38 m

Güncel hava durumu gözlemi

Rapor saat 00:30 UTC de 36 dakika önce yapıldı.
Rüzgar kuzeydan 4 kt
Sıcaklık 28°C
Nem 79%
Basınç 1012 hPa
Görüş mesafesi 10 km veya daha fazla
1400 ft yükseklikte az bulutlu

METAR: WIDD 270030Z 35004KT 9999 FEW014 28/24 Q1012 NOSIG

Saat: 08:06 (01:06 UTC)

Tahmin

Rapor saat 23:00 UTC de 2 saat ve 6 dakika önce yapıldı.
Ayın 27'si saat 00 UTC'den ayın 27'si saat 24 UTC'ye kadar geçerli Tahmin
Rüzgar kuzey/kuzeydoğudan 10 kt
Görüş mesafesi 10 km veya daha fazla
1400 ft yükseklikte parçalı bulutlu

TAF: WIDD 262300Z 2700/2724 03010KT 9999 SCT014

4.000'den fazla havaalanı için hava durumu gözlemleri ve tahminleri (METAR ve TAF raporları).

Kullanılabilir istasyonlar harita üzerinde sarı ve kırmızı noktalarla gösterilir.

İstasyonun adını görmek için fareyi noktanın üzerinde gezdirin.

Sonrasında hava gözlem ve tahminlerini görmek için tıklayın.

Haritayı değiştirmek için: yaklaştırmak için siyah artı işaretli yeşil düğmeye ve uzaklaştırmak için de eksi işaretli düğmeye hızla tıklayın; bitişik haritalar için yeşil okları kullanın.


METAR-TAF: